sensor_id;sensor_type;location;lat;lon;timestamp;pressure;altitude;pressure_sealevel;temperature
68027;BMP180;54819;48.030;14.710;2022-07-21T00:01:33;97603.60;;;21.90
68027;BMP180;54819;48.030;14.710;2022-07-21T00:04:01;97607.40;;;21.88
68027;BMP180;54819;48.030;14.710;2022-07-21T00:06:28;97605.40;;;21.80
68027;BMP180;54819;48.030;14.710;2022-07-21T00:08:54;97606.80;;;21.76
68027;BMP180;54819;48.030;14.710;2022-07-21T00:11:21;97603.20;;;21.80
68027;BMP180;54819;48.030;14.710;2022-07-21T00:13:48;97598.80;;;21.70
68027;BMP180;54819;48.030;14.710;2022-07-21T00:16:15;97604.00;;;21.70
68027;BMP180;54819;48.030;14.710;2022-07-21T00:18:49;97606.80;;;21.70
68027;BMP180;54819;48.030;14.710;2022-07-21T00:21:16;97606.20;;;21.70
68027;BMP180;54819;48.030;14.710;2022-07-21T00:23:43;97607.00;;;21.62
68027;BMP180;54819;48.030;14.710;2022-07-21T00:26:10;97606.80;;;21.60
68027;BMP180;54819;48.030;14.710;2022-07-21T00:28:37;97607.20;;;21.60
68027;BMP180;54819;48.030;14.710;2022-07-21T00:31:05;97608.40;;;21.60
68027;BMP180;54819;48.030;14.710;2022-07-21T00:33:32;97613.60;;;21.50
68027;BMP180;54819;48.030;14.710;2022-07-21T00:35:58;97615.00;;;21.50
68027;BMP180;54819;48.030;14.710;2022-07-21T00:38:25;97612.60;;;21.50
68027;BMP180;54819;48.030;14.710;2022-07-21T00:40:53;97617.00;;;21.40
68027;BMP180;54819;48.030;14.710;2022-07-21T00:43:20;97623.00;;;21.40
68027;BMP180;54819;48.030;14.710;2022-07-21T00:45:47;97630.40;;;21.38
68027;BMP180;54819;48.030;14.710;2022-07-21T00:48:14;97634.20;;;21.30
68027;BMP180;54819;48.030;14.710;2022-07-21T00:50:41;97636.60;;;21.30
68027;BMP180;54819;48.030;14.710;2022-07-21T00:53:08;97642.60;;;21.26
68027;BMP180;54819;48.030;14.710;2022-07-21T00:55:35;97652.00;;;21.20
68027;BMP180;54819;48.030;14.710;2022-07-21T00:58:02;97665.00;;;21.20
68027;BMP180;54819;48.030;14.710;2022-07-21T01:00:30;97693.00;;;21.18
68027;BMP180;54819;48.030;14.710;2022-07-21T01:03:04;97712.00;;;21.20
68027;BMP180;54819;48.030;14.710;2022-07-21T01:05:31;97716.20;;;21.20
68027;BMP180;54819;48.030;14.710;2022-07-21T01:07:58;97714.00;;;21.10
68027;BMP180;54819;48.030;14.710;2022-07-21T01:10:30;97714.80;;;21.10
68027;BMP180;54819;48.030;14.710;2022-07-21T01:12:59;97717.60;;;21.12
68027;BMP180;54819;48.030;14.710;2022-07-21T01:15:26;97719.00;;;21.12
68027;BMP180;54819;48.030;14.710;2022-07-21T01:17:53;97716.60;;;21.20
68027;BMP180;54819;48.030;14.710;2022-07-21T01:20:22;97717.20;;;21.20
68027;BMP180;54819;48.030;14.710;2022-07-21T01:22:52;97715.80;;;21.30
68027;BMP180;54819;48.030;14.710;2022-07-21T01:25:21;97717.00;;;21.30
68027;BMP180;54819;48.030;14.710;2022-07-21T01:27:48;97715.80;;;21.40
68027;BMP180;54819;48.030;14.710;2022-07-21T01:30:16;97717.00;;;21.40
68027;BMP180;54819;48.030;14.710;2022-07-21T01:32:43;97715.00;;;21.40
68027;BMP180;54819;48.030;14.710;2022-07-21T01:35:13;97718.20;;;21.40
68027;BMP180;54819;48.030;14.710;2022-07-21T01:37:44;97718.40;;;21.40
68027;BMP180;54819;48.030;14.710;2022-07-21T01:40:11;97718.60;;;21.40
68027;BMP180;54819;48.030;14.710;2022-07-21T01:42:58;97722.20;;;21.50
68027;BMP180;54819;48.030;14.710;2022-07-21T01:45:27;97713.20;;;21.52
68027;BMP180;54819;48.030;14.710;2022-07-21T01:47:54;97719.80;;;21.58
68027;BMP180;54819;48.030;14.710;2022-07-21T01:50:21;97719.80;;;21.60
68027;BMP180;54819;48.030;14.710;2022-07-21T01:52:57;97720.80;;;21.60
68027;BMP180;54819;48.030;14.710;2022-07-21T01:55:25;97719.80;;;21.70
68027;BMP180;54819;48.030;14.710;2022-07-21T01:57:53;97715.00;;;21.70
68027;BMP180;54819;48.030;14.710;2022-07-21T02:00:20;97716.60;;;21.70
68027;BMP180;54819;48.030;14.710;2022-07-21T02:02:46;97716.80;;;21.70
68027;BMP180;54819;48.030;14.710;2022-07-21T02:05:13;97714.40;;;21.70
68027;BMP180;54819;48.030;14.710;2022-07-21T02:07:40;97714.40;;;21.70
68027;BMP180;54819;48.030;14.710;2022-07-21T02:10:08;97724.60;;;21.70
68027;BMP180;54819;48.030;14.710;2022-07-21T02:12:35;97722.00;;;21.70
68027;BMP180;54819;48.030;14.710;2022-07-21T02:15:19;97723.80;;;21.80
68027;BMP180;54819;48.030;14.710;2022-07-21T02:17:46;97722.80;;;21.80
68027;BMP180;54819;48.030;14.710;2022-07-21T02:20:13;97727.40;;;21.80
68027;BMP180;54819;48.030;14.710;2022-07-21T02:22:40;97734.60;;;21.78
68027;BMP180;54819;48.030;14.710;2022-07-21T02:25:12;97732.60;;;21.78
68027;BMP180;54819;48.030;14.710;2022-07-21T02:27:39;97741.80;;;21.80
68027;BMP180;54819;48.030;14.710;2022-07-21T02:30:06;97743.40;;;21.80
68027;BMP180;54819;48.030;14.710;2022-07-21T02:32:33;97747.20;;;21.80
68027;BMP180;54819;48.030;14.710;2022-07-21T02:35:00;97747.60;;;21.80
68027;BMP180;54819;48.030;14.710;2022-07-21T02:37:28;97749.20;;;21.80
68027;BMP180;54819;48.030;14.710;2022-07-21T02:39:54;97751.40;;;21.80
68027;BMP180;54819;48.030;14.710;2022-07-21T02:42:21;97747.80;;;21.80
68027;BMP180;54819;48.030;14.710;2022-07-21T02:44:48;97751.40;;;21.80
68027;BMP180;54819;48.030;14.710;2022-07-21T02:47:15;97751.20;;;21.80
68027;BMP180;54819;48.030;14.710;2022-07-21T02:49:42;97757.20;;;21.80
68027;BMP180;54819;48.030;14.710;2022-07-21T02:52:11;97762.20;;;21.80
68027;BMP180;54819;48.030;14.710;2022-07-21T02:54:38;97768.00;;;21.86
68027;BMP180;54819;48.030;14.710;2022-07-21T02:57:05;97768.00;;;21.90
68027;BMP180;54819;48.030;14.710;2022-07-21T02:59:39;97774.40;;;21.92
68027;BMP180;54819;48.030;14.710;2022-07-21T03:02:06;97778.00;;;22.00
68027;BMP180;54819;48.030;14.710;2022-07-21T03:04:33;97782.80;;;22.00
68027;BMP180;54819;48.030;14.710;2022-07-21T03:06:59;97786.00;;;22.00
68027;BMP180;54819;48.030;14.710;2022-07-21T03:09:26;97785.80;;;22.02
68027;BMP180;54819;48.030;14.710;2022-07-21T03:11:55;97783.80;;;22.10
68027;BMP180;54819;48.030;14.710;2022-07-21T03:14:22;97787.20;;;22.10
68027;BMP180;54819;48.030;14.710;2022-07-21T03:16:49;97791.00;;;22.10
68027;BMP180;54819;48.030;14.710;2022-07-21T03:19:17;97792.00;;;22.10
68027;BMP180;54819;48.030;14.710;2022-07-21T03:21:44;97795.00;;;22.10
68027;BMP180;54819;48.030;14.710;2022-07-21T03:24:11;97793.20;;;22.10
68027;BMP180;54819;48.030;14.710;2022-07-21T03:26:37;97792.60;;;22.12
68027;BMP180;54819;48.030;14.710;2022-07-21T03:29:05;97795.20;;;22.16
68027;BMP180;54819;48.030;14.710;2022-07-21T03:31:32;97797.60;;;22.20
68027;BMP180;54819;48.030;14.710;2022-07-21T03:33:59;97798.80;;;22.20
68027;BMP180;54819;48.030;14.710;2022-07-21T03:36:26;97801.40;;;22.20
68027;BMP180;54819;48.030;14.710;2022-07-21T03:38:53;97801.60;;;22.20
68027;BMP180;54819;48.030;14.710;2022-07-21T03:41:20;97800.80;;;22.20
68027;BMP180;54819;48.030;14.710;2022-07-21T03:43:47;97799.20;;;22.20
68027;BMP180;54819;48.030;14.710;2022-07-21T03:46:14;97803.40;;;22.30
68027;BMP180;54819;48.030;14.710;2022-07-21T03:48:41;97804.60;;;22.30
68027;BMP180;54819;48.030;14.710;2022-07-21T03:51:08;97806.60;;;22.30
68027;BMP180;54819;48.030;14.710;2022-07-21T03:53:35;97811.60;;;22.30
68027;BMP180;54819;48.030;14.710;2022-07-21T03:56:03;97811.00;;;22.30
68027;BMP180;54819;48.030;14.710;2022-07-21T03:58:30;97816.20;;;22.30
68027;BMP180;54819;48.030;14.710;2022-07-21T04:00:57;97817.20;;;22.30
68027;BMP180;54819;48.030;14.710;2022-07-21T04:03:24;97820.40;;;22.30
68027;BMP180;54819;48.030;14.710;2022-07-21T04:05:51;97820.80;;;22.36
68027;BMP180;54819;48.030;14.710;2022-07-21T04:08:18;97822.20;;;22.38
68027;BMP180;54819;48.030;14.710;2022-07-21T04:10:45;97823.00;;;22.40
68027;BMP180;54819;48.030;14.710;2022-07-21T04:13:13;97823.00;;;22.40
68027;BMP180;54819;48.030;14.710;2022-07-21T04:15:40;97820.20;;;22.42
68027;BMP180;54819;48.030;14.710;2022-07-21T04:18:08;97820.60;;;22.50
68027;BMP180;54819;48.030;14.710;2022-07-21T04:20:36;97825.40;;;22.52
68027;BMP180;54819;48.030;14.710;2022-07-21T04:23:03;97826.60;;;22.60
68027;BMP180;54819;48.030;14.710;2022-07-21T04:25:31;97832.80;;;22.60
68027;BMP180;54819;48.030;14.710;2022-07-21T04:27:58;97834.80;;;22.70
68027;BMP180;54819;48.030;14.710;2022-07-21T04:30:25;97830.40;;;22.80
68027;BMP180;54819;48.030;14.710;2022-07-21T04:32:52;97817.80;;;23.34
68027;BMP180;54819;48.030;14.710;2022-07-21T04:35:20;97811.20;;;24.14
68027;BMP180;54819;48.030;14.710;2022-07-21T04:37:47;97824.20;;;24.80
68027;BMP180;54819;48.030;14.710;2022-07-21T04:40:15;97812.60;;;25.16
68027;BMP180;54819;48.030;14.710;2022-07-21T04:42:42;97822.20;;;25.92
68027;BMP180;54819;48.030;14.710;2022-07-21T04:45:12;97831.00;;;26.20
68027;BMP180;54819;48.030;14.710;2022-07-21T04:47:44;97820.40;;;26.66
68027;BMP180;54819;48.030;14.710;2022-07-21T04:50:12;97820.60;;;27.12
68027;BMP180;54819;48.030;14.710;2022-07-21T04:52:39;97795.00;;;28.12
68027;BMP180;54819;48.030;14.710;2022-07-21T04:55:07;97785.00;;;29.26
68027;BMP180;54819;48.030;14.710;2022-07-21T04:57:38;97787.60;;;30.24
68027;BMP180;54819;48.030;14.710;2022-07-21T05:00:08;97787.80;;;31.18
68027;BMP180;54819;48.030;14.710;2022-07-21T05:02:36;97787.00;;;32.00
68027;BMP180;54819;48.030;14.710;2022-07-21T05:05:04;97790.40;;;32.72
68027;BMP180;54819;48.030;14.710;2022-07-21T05:07:31;97788.80;;;33.42
68027;BMP180;54819;48.030;14.710;2022-07-21T05:09:58;97790.60;;;34.08
68027;BMP180;54819;48.030;14.710;2022-07-21T05:12:25;97799.00;;;34.50
68027;BMP180;54819;48.030;14.710;2022-07-21T05:14:52;97794.60;;;35.00
68027;BMP180;54819;48.030;14.710;2022-07-21T05:17:19;97802.60;;;35.50
68027;BMP180;54819;48.030;14.710;2022-07-21T05:19:46;97809.00;;;35.80
68027;BMP180;54819;48.030;14.710;2022-07-21T05:22:22;97857.40;;;35.24
68027;BMP180;54819;48.030;14.710;2022-07-21T05:24:49;97866.40;;;34.34
68027;BMP180;54819;48.030;14.710;2022-07-21T05:27:16;97870.00;;;33.52
68027;BMP180;54819;48.030;14.710;2022-07-21T05:29:43;97878.20;;;32.80
68027;BMP180;54819;48.030;14.710;2022-07-21T05:32:11;97877.00;;;32.24
68027;BMP180;54819;48.030;14.710;2022-07-21T05:34:37;97883.60;;;31.66
68027;BMP180;54819;48.030;14.710;2022-07-21T05:37:04;97879.20;;;31.20
68027;BMP180;54819;48.030;14.710;2022-07-21T05:39:31;97883.80;;;30.78
68027;BMP180;54819;48.030;14.710;2022-07-21T05:41:58;97884.00;;;30.40
68027;BMP180;54819;48.030;14.710;2022-07-21T05:44:25;97892.20;;;30.08
68027;BMP180;54819;48.030;14.710;2022-07-21T05:46:52;97891.00;;;29.70
68027;BMP180;54819;48.030;14.710;2022-07-21T05:49:19;97895.20;;;29.54
68027;BMP180;54819;48.030;14.710;2022-07-21T05:51:46;97898.40;;;29.30
68027;BMP180;54819;48.030;14.710;2022-07-21T05:54:13;97898.20;;;29.10
68027;BMP180;54819;48.030;14.710;2022-07-21T05:56:39;97899.20;;;28.90
68027;BMP180;54819;48.030;14.710;2022-07-21T05:59:06;97894.80;;;28.76
68027;BMP180;54819;48.030;14.710;2022-07-21T06:01:34;97902.40;;;28.60
68027;BMP180;54819;48.030;14.710;2022-07-21T06:04:01;97906.80;;;28.50
68027;BMP180;54819;48.030;14.710;2022-07-21T06:06:28;97907.40;;;28.40
68027;BMP180;54819;48.030;14.710;2022-07-21T06:08:54;97907.40;;;28.30
68027;BMP180;54819;48.030;14.710;2022-07-21T06:11:23;97907.80;;;28.20
68027;BMP180;54819;48.030;14.710;2022-07-21T06:13:49;97913.60;;;28.20
68027;BMP180;54819;48.030;14.710;2022-07-21T06:16:16;97911.20;;;28.20
68027;BMP180;54819;48.030;14.710;2022-07-21T06:18:43;97909.00;;;28.10
68027;BMP180;54819;48.030;14.710;2022-07-21T06:21:10;97909.80;;;28.10
68027;BMP180;54819;48.030;14.710;2022-07-21T06:23:37;97914.80;;;28.10
68027;BMP180;54819;48.030;14.710;2022-07-21T06:26:04;97913.20;;;28.00
68027;BMP180;54819;48.030;14.710;2022-07-21T06:28:31;97914.20;;;28.00
68027;BMP180;54819;48.030;14.710;2022-07-21T06:30:58;97914.80;;;28.00
68027;BMP180;54819;48.030;14.710;2022-07-21T06:33:25;97914.40;;;28.00
68027;BMP180;54819;48.030;14.710;2022-07-21T06:35:52;97914.80;;;28.00
68027;BMP180;54819;48.030;14.710;2022-07-21T06:38:19;97919.60;;;28.00
68027;BMP180;54819;48.030;14.710;2022-07-21T06:40:46;97915.40;;;28.00
68027;BMP180;54819;48.030;14.710;2022-07-21T06:43:13;97921.80;;;28.00
68027;BMP180;54819;48.030;14.710;2022-07-21T06:45:56;97921.40;;;28.10
68027;BMP180;54819;48.030;14.710;2022-07-21T06:48:24;97920.20;;;28.10
68027;BMP180;54819;48.030;14.710;2022-07-21T06:50:53;97927.80;;;28.10
68027;BMP180;54819;48.030;14.710;2022-07-21T06:53:21;97922.00;;;28.10
68027;BMP180;54819;48.030;14.710;2022-07-21T06:55:49;97920.80;;;28.10
68027;BMP180;54819;48.030;14.710;2022-07-21T06:58:28;97921.00;;;28.20
68027;BMP180;54819;48.030;14.710;2022-07-21T07:01:00;97927.40;;;28.26
68027;BMP180;54819;48.030;14.710;2022-07-21T07:03:28;97926.20;;;28.30
68027;BMP180;54819;48.030;14.710;2022-07-21T07:05:55;97928.60;;;28.30
68027;BMP180;54819;48.030;14.710;2022-07-21T07:08:22;97929.20;;;28.30
68027;BMP180;54819;48.030;14.710;2022-07-21T07:10:49;97921.80;;;28.34
68027;BMP180;54819;48.030;14.710;2022-07-21T07:13:16;97932.60;;;28.40
68027;BMP180;54819;48.030;14.710;2022-07-21T07:16:04;97935.00;;;28.50
68027;BMP180;54819;48.030;14.710;2022-07-21T07:18:31;97937.60;;;28.60
68027;BMP180;54819;48.030;14.710;2022-07-21T07:20:58;97941.80;;;28.60
68027;BMP180;54819;48.030;14.710;2022-07-21T07:23:25;97941.40;;;28.70
68027;BMP180;54819;48.030;14.710;2022-07-21T07:25:52;97943.80;;;28.70
68027;BMP180;54819;48.030;14.710;2022-07-21T07:28:19;97943.40;;;28.80
68027;BMP180;54819;48.030;14.710;2022-07-21T07:30:46;97945.20;;;28.84
68027;BMP180;54819;48.030;14.710;2022-07-21T07:33:15;97946.60;;;28.90
68027;BMP180;54819;48.030;14.710;2022-07-21T07:35:42;97946.40;;;28.92
68027;BMP180;54819;48.030;14.710;2022-07-21T07:38:13;97946.40;;;28.98
68027;BMP180;54819;48.030;14.710;2022-07-21T07:40:41;97944.80;;;29.00
68027;BMP180;54819;48.030;14.710;2022-07-21T07:43:08;97940.80;;;29.00
68027;BMP180;54819;48.030;14.710;2022-07-21T07:45:36;97942.40;;;29.00
68027;BMP180;54819;48.030;14.710;2022-07-21T07:48:04;97941.00;;;29.00
68027;BMP180;54819;48.030;14.710;2022-07-21T07:50:31;97942.80;;;29.00
68027;BMP180;54819;48.030;14.710;2022-07-21T07:52:58;97941.20;;;29.00
68027;BMP180;54819;48.030;14.710;2022-07-21T07:55:24;97938.40;;;29.00
68027;BMP180;54819;48.030;14.710;2022-07-21T07:57:51;97934.40;;;29.10
68027;BMP180;54819;48.030;14.710;2022-07-21T08:00:19;97930.40;;;29.14
68027;BMP180;54819;48.030;14.710;2022-07-21T08:03:06;97934.00;;;29.20
68027;BMP180;54819;48.030;14.710;2022-07-21T08:05:34;97936.40;;;29.20
68027;BMP180;54819;48.030;14.710;2022-07-21T08:08:01;97931.20;;;29.20
68027;BMP180;54819;48.030;14.710;2022-07-21T08:10:28;97937.40;;;29.20
68027;BMP180;54819;48.030;14.710;2022-07-21T08:13:07;97938.20;;;29.22
68027;BMP180;54819;48.030;14.710;2022-07-21T08:15:36;97940.00;;;29.28
68027;BMP180;54819;48.030;14.710;2022-07-21T08:18:04;97938.40;;;29.30
68027;BMP180;54819;48.030;14.710;2022-07-21T08:20:32;97939.20;;;29.30
68027;BMP180;54819;48.030;14.710;2022-07-21T08:22:58;97944.00;;;29.36
68027;BMP180;54819;48.030;14.710;2022-07-21T08:25:26;97947.40;;;29.72
68027;BMP180;54819;48.030;14.710;2022-07-21T08:27:53;97943.40;;;29.80
68027;BMP180;54819;48.030;14.710;2022-07-21T08:30:20;97946.20;;;29.80
68027;BMP180;54819;48.030;14.710;2022-07-21T08:32:54;97948.80;;;29.70
68027;BMP180;54819;48.030;14.710;2022-07-21T08:35:21;97944.40;;;29.72
68027;BMP180;54819;48.030;14.710;2022-07-21T08:37:55;97950.80;;;29.70
68027;BMP180;54819;48.030;14.710;2022-07-21T08:40:24;97950.60;;;29.70
68027;BMP180;54819;48.030;14.710;2022-07-21T08:42:52;97951.40;;;29.72
68027;BMP180;54819;48.030;14.710;2022-07-21T08:45:21;97954.80;;;29.74
68027;BMP180;54819;48.030;14.710;2022-07-21T08:47:52;97954.20;;;29.80
68027;BMP180;54819;48.030;14.710;2022-07-21T08:50:22;97953.40;;;29.80
68027;BMP180;54819;48.030;14.710;2022-07-21T08:52:50;97956.00;;;29.90
68027;BMP180;54819;48.030;14.710;2022-07-21T08:55:28;97953.40;;;29.98
68027;BMP180;54819;48.030;14.710;2022-07-21T08:57:56;97951.40;;;30.00
68027;BMP180;54819;48.030;14.710;2022-07-21T09:00:24;97950.00;;;30.20
68027;BMP180;54819;48.030;14.710;2022-07-21T09:03:08;97942.80;;;30.22
68027;BMP180;54819;48.030;14.710;2022-07-21T09:05:36;97948.40;;;30.22
68027;BMP180;54819;48.030;14.710;2022-07-21T09:08:03;97944.60;;;30.20
68027;BMP180;54819;48.030;14.710;2022-07-21T09:10:31;97947.40;;;30.20
68027;BMP180;54819;48.030;14.710;2022-07-21T09:13:03;97952.00;;;30.20
68027;BMP180;54819;48.030;14.710;2022-07-21T09:15:31;97944.00;;;30.20
68027;BMP180;54819;48.030;14.710;2022-07-21T09:18:08;97939.20;;;30.20
68027;BMP180;54819;48.030;14.710;2022-07-21T09:20:46;97933.00;;;30.20
68027;BMP180;54819;48.030;14.710;2022-07-21T09:23:15;97932.20;;;30.30
68027;BMP180;54819;48.030;14.710;2022-07-21T09:25:48;97936.00;;;30.30
68027;BMP180;54819;48.030;14.710;2022-07-21T09:28:34;97928.00;;;30.40
68027;BMP180;54819;48.030;14.710;2022-07-21T09:31:06;97935.80;;;30.44
68027;BMP180;54819;48.030;14.710;2022-07-21T09:33:38;97934.00;;;30.50
68027;BMP180;54819;48.030;14.710;2022-07-21T09:36:08;97933.80;;;30.50
68027;BMP180;54819;48.030;14.710;2022-07-21T09:38:41;97929.20;;;30.50
68027;BMP180;54819;48.030;14.710;2022-07-21T09:41:11;97925.80;;;30.58
68027;BMP180;54819;48.030;14.710;2022-07-21T09:43:41;97929.80;;;30.60
68027;BMP180;54819;48.030;14.710;2022-07-21T09:46:18;97932.00;;;30.60
68027;BMP180;54819;48.030;14.710;2022-07-21T09:48:50;97931.60;;;30.60
68027;BMP180;54819;48.030;14.710;2022-07-21T09:51:38;97932.40;;;30.60
68027;BMP180;54819;48.030;14.710;2022-07-21T09:54:10;97933.20;;;30.62
68027;BMP180;54819;48.030;14.710;2022-07-21T09:56:43;97929.00;;;30.60
68027;BMP180;54819;48.030;14.710;2022-07-21T09:59:12;97929.40;;;30.60
68027;BMP180;54819;48.030;14.710;2022-07-21T10:01:39;97927.80;;;30.68
68027;BMP180;54819;48.030;14.710;2022-07-21T10:04:07;97929.20;;;30.70
68027;BMP180;54819;48.030;14.710;2022-07-21T10:06:37;97935.00;;;30.80
68027;BMP180;54819;48.030;14.710;2022-07-21T10:09:08;97931.40;;;30.80
68027;BMP180;54819;48.030;14.710;2022-07-21T10:11:40;97927.20;;;30.80
68027;BMP180;54819;48.030;14.710;2022-07-21T10:14:10;97923.20;;;30.90
68027;BMP180;54819;48.030;14.710;2022-07-21T10:16:37;97925.00;;;30.90
68027;BMP180;54819;48.030;14.710;2022-07-21T10:19:21;97927.00;;;30.88
68027;BMP180;54819;48.030;14.710;2022-07-21T10:24:33;97922.20;;;30.90
68027;BMP180;54819;48.030;14.710;2022-07-21T10:27:09;97918.80;;;30.90
68027;BMP180;54819;48.030;14.710;2022-07-21T10:29:56;97916.40;;;30.90
68027;BMP180;54819;48.030;14.710;2022-07-21T10:32:49;97920.00;;;30.90
68027;BMP180;54819;48.030;14.710;2022-07-21T10:35:28;97915.60;;;31.00
68027;BMP180;54819;48.030;14.710;2022-07-21T10:37:57;97920.40;;;31.00
68027;BMP180;54819;48.030;14.710;2022-07-21T10:48:06;97922.40;;;33.20
